createdAt,value
2023-05-25T00:00:22.033Z,13.38
2023-05-25T00:02:49.130Z,13.48
2023-05-25T00:05:18.487Z,13.41
2023-05-25T00:07:45.402Z,13.55
2023-05-25T00:10:12.776Z,13.57
2023-05-25T00:12:40.292Z,13.64
2023-05-25T00:15:07.688Z,13.72
2023-05-25T00:17:37.326Z,13.66
2023-05-25T00:20:08.159Z,13.66
2023-05-25T00:22:38.212Z,13.65
2023-05-25T00:25:06.566Z,13.58
2023-05-25T00:27:33.450Z,13.56
2023-05-25T00:30:00.248Z,13.28
2023-05-25T00:32:27.400Z,13.58
2023-05-25T00:34:55.102Z,13.48
2023-05-25T00:37:21.943Z,13.40
2023-05-25T00:39:48.867Z,13.37
2023-05-25T00:42:15.974Z,13.37
2023-05-25T00:44:42.939Z,13.44
2023-05-25T00:47:11.794Z,13.51
2023-05-25T00:49:38.640Z,13.51
2023-05-25T00:52:05.776Z,13.54
2023-05-25T00:54:38.044Z,13.64
2023-05-25T00:57:07.911Z,13.48
2023-05-25T00:59:41.606Z,13.67
2023-05-25T01:02:10.584Z,13.69
2023-05-25T01:04:47.088Z,13.57
2023-05-25T01:07:18.111Z,13.64
2023-05-25T01:09:45.927Z,13.34
2023-05-25T01:12:16.745Z,13.54
2023-05-25T01:14:45.656Z,13.56
2023-05-25T01:17:12.412Z,13.50
2023-05-25T01:19:41.454Z,13.72
2023-05-25T01:22:12.638Z,13.70
2023-05-25T01:24:53.688Z,13.67
2023-05-25T01:27:33.293Z,13.26
2023-05-25T01:30:02.096Z,13.48
2023-05-25T01:32:32.385Z,13.15
2023-05-25T01:35:00.752Z,13.38
2023-05-25T01:37:28.207Z,13.02
2023-05-25T01:39:55.251Z,13.05
2023-05-25T01:42:22.433Z,13.02
2023-05-25T01:44:49.935Z,13.32
2023-05-25T01:47:45.166Z,13.42
2023-05-25T01:50:36.975Z,13.26
2023-05-25T01:53:09.700Z,13.30
2023-05-25T01:56:05.214Z,13.18
2023-05-25T01:58:43.301Z,12.70
2023-05-25T02:01:12.523Z,12.43
2023-05-25T02:03:41.671Z,12.96
2023-05-25T02:06:08.932Z,12.61
2023-05-25T02:08:35.730Z,12.22
2023-05-25T02:11:02.469Z,12.14
2023-05-25T02:13:29.264Z,12.28
2023-05-25T02:15:56.521Z,12.22
2023-05-25T02:18:23.783Z,12.19
2023-05-25T02:20:50.603Z,12.07
2023-05-25T02:23:19.101Z,11.98
2023-05-25T02:25:46.614Z,11.73
2023-05-25T02:28:14.364Z,11.88
2023-05-25T02:30:41.301Z,11.83
2023-05-25T02:33:08.903Z,11.85
2023-05-25T02:35:35.671Z,11.90
2023-05-25T02:38:02.303Z,11.99
2023-05-25T02:40:29.289Z,12.08
2023-05-25T02:42:55.950Z,12.16
2023-05-25T02:45:22.714Z,12.15
2023-05-25T02:47:49.553Z,12.29
2023-05-25T02:50:16.382Z,12.37
2023-05-25T02:52:43.144Z,12.48
2023-05-25T02:55:18.878Z,12.54
2023-05-25T02:57:45.749Z,12.47
2023-05-25T03:00:13.022Z,12.33
2023-05-25T03:02:39.745Z,12.43
2023-05-25T03:05:07.592Z,12.53
2023-05-25T03:07:34.739Z,12.66
2023-05-25T03:10:01.330Z,12.73
2023-05-25T03:12:28.060Z,12.82
2023-05-25T03:14:54.704Z,12.93
2023-05-25T03:17:21.455Z,12.97
2023-05-25T03:19:48.258Z,13.15
2023-05-25T03:22:14.990Z,13.24
2023-05-25T03:24:41.951Z,13.32
2023-05-25T03:27:09.186Z,13.43
2023-05-25T03:29:35.908Z,13.49
2023-05-25T03:32:02.888Z,13.52
2023-05-25T03:34:30.125Z,13.70
2023-05-25T03:36:56.784Z,13.73
2023-05-25T03:39:23.590Z,14.02
2023-05-25T03:41:51.246Z,14.10
2023-05-25T03:44:18.045Z,14.33
2023-05-25T03:46:48.459Z,14.72
2023-05-25T03:49:15.547Z,14.77
2023-05-25T03:51:43.401Z,14.62
2023-05-25T03:54:10.499Z,15.19
2023-05-25T03:56:37.399Z,15.74
2023-05-25T03:59:04.133Z,16.10
2023-05-25T04:01:30.891Z,16.80
2023-05-25T04:03:57.810Z,16.98
2023-05-25T04:06:25.786Z,16.86
2023-05-25T04:08:53.285Z,16.85
2023-05-25T04:11:21.173Z,16.94
2023-05-25T04:13:47.995Z,16.99
2023-05-25T04:16:14.856Z,17.02
2023-05-25T04:18:41.860Z,16.75
2023-05-25T04:21:08.622Z,16.68
2023-05-25T04:23:35.581Z,16.50
2023-05-25T04:26:02.335Z,16.17
2023-05-25T04:28:29.602Z,16.46
2023-05-25T04:30:59.637Z,16.91
2023-05-25T04:33:30.083Z,17.25
2023-05-25T04:35:58.704Z,16.95
2023-05-25T04:38:25.593Z,17.16
2023-05-25T04:40:57.715Z,16.74
2023-05-25T04:43:26.026Z,16.89
2023-05-25T04:45:54.434Z,17.21
2023-05-25T04:48:21.586Z,17.56
2023-05-25T04:50:48.580Z,18.10
2023-05-25T04:53:15.271Z,18.95
2023-05-25T04:55:43.107Z,19.48
2023-05-25T04:58:09.955Z,20.24
2023-05-25T05:00:36.676Z,20.79
2023-05-25T05:03:03.414Z,21.07
2023-05-25T05:05:30.294Z,21.66
2023-05-25T05:07:58.005Z,21.64
2023-05-25T05:10:24.733Z,22.04
2023-05-25T05:12:51.510Z,22.50
2023-05-25T05:15:18.545Z,22.29
2023-05-25T05:17:45.330Z,22.37
2023-05-25T05:20:12.434Z,22.11
2023-05-25T05:22:39.307Z,22.15
2023-05-25T05:25:07.356Z,22.36
2023-05-25T05:27:35.050Z,22.33
2023-05-25T05:30:02.091Z,22.55
2023-05-25T05:32:31.689Z,22.39
2023-05-25T05:34:58.427Z,22.78
2023-05-25T05:37:25.051Z,22.51
2023-05-25T05:39:53.182Z,22.58
2023-05-25T05:42:20.102Z,22.05
2023-05-25T05:44:46.698Z,21.77
2023-05-25T05:47:13.415Z,21.63
2023-05-25T05:49:40.107Z,21.63
2023-05-25T05:52:10.395Z,21.62
2023-05-25T05:54:37.166Z,21.77
2023-05-25T05:57:03.906Z,22.15
2023-05-25T05:59:31.343Z,22.42
2023-05-25T06:01:58.151Z,22.51
2023-05-25T06:04:28.774Z,22.65
2023-05-25T06:06:55.950Z,22.53
2023-05-25T06:09:22.726Z,22.46
2023-05-25T06:11:49.674Z,22.67
2023-05-25T06:14:16.585Z,22.52
2023-05-25T06:16:43.922Z,22.49
2023-05-25T06:19:11.083Z,22.56
2023-05-25T06:21:37.801Z,22.84
2023-05-25T06:24:14.498Z,22.58
2023-05-25T06:26:41.863Z,22.08
2023-05-25T06:29:08.943Z,22.46
2023-05-25T06:31:36.690Z,22.83
2023-05-25T06:34:06.720Z,22.89
2023-05-25T06:36:33.392Z,22.46
2023-05-25T06:39:00.361Z,22.57
2023-05-25T06:41:27.827Z,22.99
2023-05-25T06:43:55.594Z,23.30
2023-05-25T06:46:26.785Z,22.52
2023-05-25T06:48:55.231Z,22.13
2023-05-25T06:51:22.607Z,22.63
2023-05-25T06:53:49.379Z,23.19
2023-05-25T06:56:16.240Z,23.45
2023-05-25T06:58:43.004Z,23.99
2023-05-25T07:01:09.786Z,23.46
2023-05-25T07:03:36.629Z,23.02
2023-05-25T07:06:03.492Z,22.95
2023-05-25T07:08:30.422Z,23.60
2023-05-25T07:10:57.295Z,23.72
2023-05-25T07:13:24.020Z,23.58
2023-05-25T07:15:52.782Z,23.63
2023-05-25T07:18:19.882Z,22.45
2023-05-25T07:20:46.574Z,21.67
2023-05-25T07:23:13.460Z,21.07
2023-05-25T07:25:41.561Z,20.83
2023-05-25T07:28:08.741Z,20.69
2023-05-25T07:30:35.755Z,20.71
2023-05-25T07:33:02.728Z,21.11
2023-05-25T07:35:29.516Z,21.16
2023-05-25T07:38:00.195Z,21.13
2023-05-25T07:40:27.669Z,20.86
2023-05-25T07:42:55.297Z,21.25
2023-05-25T07:45:22.860Z,20.88
2023-05-25T07:48:17.660Z,19.86
2023-05-25T07:50:44.761Z,20.03
2023-05-25T07:53:11.598Z,19.98
2023-05-25T07:55:38.538Z,19.87
2023-05-25T07:58:07.617Z,19.64
2023-05-25T08:00:34.773Z,19.20
2023-05-25T08:03:02.843Z,19.28
2023-05-25T08:05:29.679Z,19.45
2023-05-25T08:07:57.189Z,19.12
2023-05-25T08:10:24.286Z,18.81
2023-05-25T08:12:52.576Z,17.90
2023-05-25T08:15:20.460Z,17.48
2023-05-25T08:17:51.005Z,17.07
2023-05-25T08:20:18.016Z,16.89
2023-05-25T08:22:45.476Z,16.67
2023-05-25T08:25:12.231Z,16.41
2023-05-25T08:27:38.979Z,16.42
2023-05-25T08:30:06.405Z,16.34
2023-05-25T08:32:33.440Z,16.31
2023-05-25T08:35:01.829Z,15.55
2023-05-25T08:37:29.463Z,15.63
2023-05-25T08:39:56.368Z,15.42
2023-05-25T08:42:23.908Z,15.32
2023-05-25T08:44:50.888Z,15.05
2023-05-25T08:47:18.085Z,15.20
2023-05-25T08:49:45.561Z,15.26
2023-05-25T08:52:14.957Z,14.73
2023-05-25T08:54:45.095Z,15.06
2023-05-25T08:57:23.332Z,15.04
2023-05-25T08:59:59.350Z,15.21
2023-05-25T09:02:45.611Z,15.20
2023-05-25T09:05:15.901Z,15.22
2023-05-25T09:07:44.518Z,15.19
2023-05-25T09:10:12.087Z,15.03
2023-05-25T09:12:39.228Z,14.94
2023-05-25T09:15:06.749Z,15.01
2023-05-25T09:17:35.333Z,14.97
2023-05-25T09:20:03.744Z,15.13
2023-05-25T09:22:30.728Z,15.11
2023-05-25T09:25:08.626Z,15.19
2023-05-25T09:27:39.592Z,15.29
2023-05-25T09:30:06.985Z,15.51
2023-05-25T09:32:34.203Z,15.87
2023-05-25T09:35:12.320Z,16.06
2023-05-25T09:37:40.317Z,16.36
2023-05-25T09:40:09.040Z,16.47
2023-05-25T09:42:42.444Z,16.61
2023-05-25T09:45:09.754Z,16.53
2023-05-25T09:47:37.681Z,16.53
2023-05-25T09:50:16.271Z,16.62
2023-05-25T09:52:42.875Z,16.88
2023-05-25T09:55:10.641Z,17.16
2023-05-25T09:57:39.395Z,17.00
2023-05-25T10:00:12.224Z,17.08
2023-05-25T10:02:39.271Z,17.04
2023-05-25T10:05:07.585Z,17.27
2023-05-25T10:07:35.275Z,17.33
2023-05-25T10:10:08.307Z,17.78
2023-05-25T10:12:35.543Z,17.75
2023-05-25T10:15:07.919Z,17.97
2023-05-25T10:17:38.091Z,18.18
2023-05-25T10:20:08.454Z,18.63
2023-05-25T10:23:00.229Z,18.53
2023-05-25T10:25:52.840Z,18.97
2023-05-25T10:28:19.585Z,19.13
2023-05-25T10:30:47.831Z,19.33
2023-05-25T10:33:15.101Z,18.96
2023-05-25T10:36:01.627Z,18.63
2023-05-25T10:38:33.903Z,18.97
2023-05-25T10:41:02.815Z,18.48
2023-05-25T10:43:30.564Z,18.46
2023-05-25T10:45:58.062Z,18.80
2023-05-25T10:48:35.711Z,18.93
2023-05-25T10:51:31.075Z,19.06
2023-05-25T10:54:02.268Z,18.32
2023-05-25T10:56:29.328Z,17.94
2023-05-25T10:58:56.981Z,17.87
2023-05-25T11:01:25.699Z,17.93
2023-05-25T11:04:11.218Z,18.06
2023-05-25T11:06:40.303Z,17.90
2023-05-25T11:09:07.451Z,17.76
2023-05-25T11:11:43.331Z,17.70
2023-05-25T11:14:30.207Z,18.07
2023-05-25T11:17:14.951Z,18.44
2023-05-25T11:19:53.975Z,18.39
2023-05-25T11:22:35.640Z,18.48
2023-05-25T11:25:04.153Z,18.07
2023-05-25T11:27:32.777Z,18.07
2023-05-25T11:30:01.420Z,18.52
2023-05-25T11:32:29.048Z,18.34
2023-05-25T11:34:58.655Z,18.55
2023-05-25T11:37:29.211Z,19.03
2023-05-25T11:39:56.554Z,19.19
2023-05-25T11:42:26.613Z,19.64
2023-05-25T11:44:54.159Z,19.46
2023-05-25T11:47:23.658Z,19.68
2023-05-25T11:49:51.090Z,19.59
2023-05-25T11:52:19.468Z,19.53
2023-05-25T11:54:51.497Z,19.31
2023-05-25T11:57:21.139Z,19.69
2023-05-25T11:59:52.493Z,20.05
2023-05-25T12:02:24.402Z,20.49
2023-05-25T12:05:04.346Z,20.83
2023-05-25T12:07:35.241Z,20.43
2023-05-25T12:10:09.705Z,21.23
2023-05-25T12:12:49.967Z,20.76
2023-05-25T12:15:24.804Z,20.32
2023-05-25T12:17:54.014Z,20.23
2023-05-25T12:20:21.974Z,20.08
2023-05-25T12:22:49.759Z,20.27
2023-05-25T12:25:21.059Z,20.13
2023-05-25T12:27:47.861Z,20.54
2023-05-25T12:30:14.747Z,20.98
2023-05-25T12:33:02.689Z,21.41
2023-05-25T12:35:44.248Z,21.04
2023-05-25T12:38:15.694Z,21.18
2023-05-25T12:40:43.277Z,21.43
2023-05-25T12:43:12.133Z,21.76
2023-05-25T12:45:45.601Z,22.00
2023-05-25T12:48:12.744Z,21.86
2023-05-25T12:50:39.593Z,21.58
2023-05-25T12:53:06.741Z,22.03
2023-05-25T12:55:36.397Z,22.40
2023-05-25T12:58:05.781Z,22.49
2023-05-25T13:00:37.547Z,22.29
2023-05-25T13:03:07.721Z,22.68
2023-05-25T13:05:37.012Z,22.98
2023-05-25T13:08:05.665Z,23.38
2023-05-25T13:10:33.456Z,23.25
2023-05-25T13:13:01.156Z,23.06
2023-05-25T13:15:28.265Z,22.70
2023-05-25T13:17:56.772Z,22.50
2023-05-25T13:20:25.660Z,22.70
2023-05-25T13:22:53.231Z,22.79
2023-05-25T13:25:22.333Z,22.84
2023-05-25T13:27:51.284Z,23.20
2023-05-25T13:30:22.002Z,23.15
2023-05-25T13:32:51.423Z,23.28
2023-05-25T13:35:23.584Z,22.71
2023-05-25T13:37:51.358Z,22.83
2023-05-25T13:40:22.165Z,23.05
2023-05-25T13:42:50.022Z,23.20
2023-05-25T13:45:18.187Z,22.92
2023-05-25T13:47:51.010Z,23.50
2023-05-25T13:50:18.983Z,23.24
2023-05-25T13:52:54.781Z,23.18
2023-05-25T13:55:23.396Z,23.21
2023-05-25T14:00:39.147Z,23.49
2023-05-25T14:14:23.194Z,23.40
2023-05-25T14:19:49.152Z,23.00
2023-05-25T14:22:16.162Z,23.57
2023-05-25T14:24:43.150Z,23.60
2023-05-25T14:27:09.935Z,23.89
2023-05-25T14:29:36.731Z,23.64
2023-05-25T14:32:03.930Z,23.76
2023-05-25T14:34:30.817Z,24.28
2023-05-25T14:36:57.610Z,24.42
2023-05-25T14:39:24.423Z,24.50
2023-05-25T14:41:51.241Z,24.48
2023-05-25T14:44:17.997Z,24.83
2023-05-25T14:46:45.153Z,24.17
2023-05-25T14:49:13.606Z,24.22
2023-05-25T14:51:40.566Z,24.60
2023-05-25T14:54:08.046Z,25.11
2023-05-25T14:56:35.168Z,25.08
2023-05-25T14:59:01.974Z,25.09
2023-05-25T15:01:29.611Z,25.48
2023-05-25T15:03:56.938Z,25.16
2023-05-25T15:06:24.054Z,24.64
2023-05-25T15:08:51.132Z,24.31
2023-05-25T15:11:18.253Z,24.25
2023-05-25T15:13:45.393Z,23.79
2023-05-25T15:16:16.590Z,24.22
2023-05-25T15:18:44.182Z,24.89
2023-05-25T15:21:11.860Z,25.17
2023-05-25T15:23:38.658Z,25.41
2023-05-25T15:26:07.820Z,24.73
2023-05-25T15:28:35.725Z,25.34
2023-05-25T15:31:03.520Z,25.57
2023-05-25T15:33:48.457Z,25.65
2023-05-25T15:36:18.802Z,26.09
2023-05-25T15:38:49.498Z,26.12
2023-05-25T15:41:18.455Z,25.24
2023-05-25T15:43:52.638Z,24.36
2023-05-25T15:46:19.571Z,24.22
2023-05-25T15:48:46.463Z,24.16
2023-05-25T15:51:13.558Z,23.84
2023-05-25T15:53:40.823Z,23.45
2023-05-25T15:56:07.507Z,22.97
2023-05-25T15:58:34.713Z,22.85
2023-05-25T16:01:01.751Z,22.52
2023-05-25T16:03:30.182Z,22.37
2023-05-25T16:05:57.203Z,22.51
2023-05-25T16:08:23.982Z,22.32
2023-05-25T16:10:51.004Z,21.62
2023-05-25T16:13:17.598Z,21.15
2023-05-25T16:15:44.422Z,20.25
2023-05-25T16:18:11.559Z,19.59
2023-05-25T16:20:38.593Z,18.82
2023-05-25T16:23:06.771Z,18.22
2023-05-25T16:25:33.532Z,17.27
2023-05-25T16:28:01.528Z,17.20
2023-05-25T16:30:33.785Z,16.64
2023-05-25T16:33:01.318Z,15.68
2023-05-25T16:35:30.609Z,16.35
2023-05-25T16:38:01.177Z,16.45
2023-05-25T16:40:28.500Z,16.11
2023-05-25T16:42:55.748Z,16.02
2023-05-25T16:45:22.790Z,15.68
2023-05-25T16:47:56.184Z,16.09
2023-05-25T16:50:27.152Z,15.20
2023-05-25T16:53:00.342Z,15.18
2023-05-25T16:58:36.065Z,16.02
2023-05-25T17:01:08.617Z,15.60
2023-05-25T17:03:43.766Z,16.08
2023-05-25T17:06:10.672Z,15.49
2023-05-25T17:08:38.773Z,15.87
2023-05-25T17:11:06.213Z,15.58
2023-05-25T17:13:36.927Z,15.36
2023-05-25T17:16:07.981Z,15.46
2023-05-25T17:22:29.247Z,15.32
2023-05-25T17:25:17.685Z,14.88
2023-05-25T17:27:49.759Z,14.39
2023-05-25T17:30:30.632Z,15.29
2023-05-25T17:33:07.320Z,14.81
2023-05-25T17:35:39.616Z,15.29
2023-05-25T17:38:10.533Z,14.37
2023-05-25T17:40:43.492Z,14.54
2023-05-25T17:43:23.331Z,14.32
2023-05-25T17:45:50.660Z,14.28
2023-05-25T17:48:18.063Z,15.07
2023-05-25T17:50:48.137Z,15.27
2023-05-25T17:53:25.299Z,14.42
2023-05-25T17:55:59.719Z,15.35
2023-05-25T17:58:38.872Z,15.23
2023-05-25T18:01:19.869Z,15.39
2023-05-25T18:03:50.855Z,15.24
2023-05-25T18:06:23.270Z,15.56
2023-05-25T18:08:52.926Z,15.12
2023-05-25T18:11:19.885Z,15.65
2023-05-25T18:13:46.705Z,15.60
2023-05-25T18:16:13.396Z,15.65
2023-05-25T18:18:40.455Z,15.53
2023-05-25T18:21:07.388Z,15.54
2023-05-25T18:23:34.093Z,15.57
2023-05-25T18:26:00.697Z,15.54
2023-05-25T18:28:29.219Z,15.41
2023-05-25T18:30:58.022Z,15.46
2023-05-25T18:33:24.840Z,15.45
2023-05-25T18:35:51.469Z,15.49
2023-05-25T18:38:18.230Z,15.46
2023-05-25T18:40:45.051Z,15.47
2023-05-25T18:43:11.828Z,15.43
2023-05-25T18:45:38.568Z,15.32
2023-05-25T18:48:07.712Z,15.27
2023-05-25T18:50:35.192Z,15.38
2023-05-25T18:53:02.582Z,15.29
2023-05-25T18:55:29.623Z,15.27
2023-05-25T18:57:56.999Z,15.28
2023-05-25T19:00:24.065Z,15.27
2023-05-25T19:02:50.823Z,15.21
2023-05-25T19:05:18.688Z,15.13
2023-05-25T19:07:58.354Z,15.16
2023-05-25T19:10:26.170Z,15.14
2023-05-25T19:12:52.862Z,15.14
2023-05-25T19:15:19.677Z,15.17
2023-05-25T19:17:47.243Z,15.10
2023-05-25T19:20:14.508Z,14.90
2023-05-25T19:22:41.934Z,14.88
2023-05-25T19:25:08.866Z,14.79
2023-05-25T19:27:35.782Z,14.73
2023-05-25T19:30:11.495Z,14.67
2023-05-25T19:32:38.176Z,14.66
2023-05-25T19:35:05.104Z,14.65
2023-05-25T19:37:31.789Z,14.67
2023-05-25T19:39:58.610Z,14.59
2023-05-25T19:42:25.286Z,14.67
2023-05-25T19:44:51.978Z,14.68
2023-05-25T19:47:18.827Z,14.71
2023-05-25T19:49:47.948Z,14.68
2023-05-25T19:52:16.628Z,14.67
2023-05-25T19:54:43.458Z,14.78
2023-05-25T19:57:10.679Z,14.70
2023-05-25T19:59:38.400Z,14.73
2023-05-25T20:02:05.552Z,14.77
2023-05-25T20:04:32.251Z,14.81
2023-05-25T20:07:01.112Z,14.82
2023-05-25T20:09:30.965Z,14.74
2023-05-25T20:11:58.623Z,14.58
2023-05-25T20:14:25.830Z,14.36
2023-05-25T20:16:55.341Z,14.22
2023-05-25T20:19:23.546Z,14.24
2023-05-25T20:21:50.413Z,14.23
2023-05-25T20:24:17.767Z,13.95
2023-05-25T20:26:44.772Z,13.77
2023-05-25T20:29:11.652Z,13.68
2023-05-25T20:31:38.554Z,13.14
2023-05-25T20:34:05.421Z,13.50
2023-05-25T20:36:33.091Z,13.63
2023-05-25T20:38:59.957Z,13.55
2023-05-25T20:41:26.737Z,13.66
2023-05-25T20:43:53.430Z,13.77
2023-05-25T20:46:20.602Z,13.61
2023-05-25T20:48:47.229Z,13.57
2023-05-25T20:51:14.388Z,13.64
2023-05-25T20:53:41.201Z,13.59
2023-05-25T20:56:07.924Z,13.48
2023-05-25T20:58:34.625Z,13.37
2023-05-25T21:01:01.406Z,13.36
2023-05-25T21:03:28.103Z,13.32
2023-05-25T21:05:55.971Z,13.24
2023-05-25T21:08:24.192Z,13.25
2023-05-25T21:10:51.013Z,13.14
2023-05-25T21:13:18.237Z,13.09
2023-05-25T21:15:45.095Z,13.01
2023-05-25T21:18:11.967Z,12.98
2023-05-25T21:20:38.689Z,13.01
2023-05-25T21:23:06.515Z,13.09
2023-05-25T21:25:33.351Z,12.45
2023-05-25T21:28:00.184Z,13.02
2023-05-25T21:30:27.453Z,13.00
2023-05-25T21:32:54.265Z,12.94
2023-05-25T21:35:21.605Z,12.89
2023-05-25T21:37:48.401Z,13.08
2023-05-25T21:40:15.023Z,12.77
2023-05-25T21:42:42.038Z,13.21
2023-05-25T21:45:09.078Z,13.29
2023-05-25T21:47:35.854Z,13.35
2023-05-25T21:50:02.710Z,13.24
2023-05-25T21:52:29.364Z,13.13
2023-05-25T21:54:56.195Z,13.04
2023-05-25T21:57:22.983Z,13.06
2023-05-25T21:59:49.842Z,13.09
2023-05-25T22:02:16.657Z,12.94
2023-05-25T22:04:43.318Z,13.17
2023-05-25T22:07:10.462Z,13.23
2023-05-25T22:09:37.207Z,13.19
2023-05-25T22:12:04.151Z,13.20
2023-05-25T22:14:30.777Z,13.01
2023-05-25T22:16:57.477Z,13.05
2023-05-25T22:19:24.133Z,13.16
2023-05-25T22:21:53.912Z,13.05
2023-05-25T22:24:20.678Z,13.24
2023-05-25T22:26:47.319Z,13.19
2023-05-25T22:29:14.082Z,13.31
2023-05-25T22:31:41.283Z,13.30
2023-05-25T22:34:07.980Z,13.18
2023-05-25T22:36:34.742Z,13.03
2023-05-25T22:39:01.536Z,13.13
2023-05-25T22:41:28.355Z,13.11
2023-05-25T22:43:55.234Z,13.09
2023-05-25T22:46:23.288Z,13.12
2023-05-25T22:48:50.108Z,13.12
2023-05-25T22:51:16.806Z,13.02
2023-05-25T22:53:43.667Z,13.06
2023-05-25T22:56:10.429Z,13.08
2023-05-25T22:58:37.265Z,13.11
2023-05-25T23:01:04.002Z,13.04
2023-05-25T23:03:30.826Z,12.98
2023-05-25T23:05:57.507Z,12.91
2023-05-25T23:08:24.135Z,12.96
2023-05-25T23:10:50.909Z,13.05
2023-05-25T23:13:19.310Z,13.05
2023-05-25T23:15:47.606Z,13.09
2023-05-25T23:18:14.491Z,13.06
2023-05-25T23:20:42.031Z,13.12
2023-05-25T23:23:08.947Z,13.12
2023-05-25T23:25:36.562Z,12.95
2023-05-25T23:28:03.288Z,13.12
2023-05-25T23:30:30.290Z,12.98
2023-05-25T23:32:57.243Z,13.07
2023-05-25T23:35:24.054Z,12.97
2023-05-25T23:37:52.120Z,12.38
2023-05-25T23:40:19.139Z,12.66
2023-05-25T23:42:46.092Z,12.68
2023-05-25T23:45:13.867Z,12.45
2023-05-25T23:47:40.817Z,12.54
2023-05-25T23:50:07.996Z,12.56
2023-05-25T23:52:34.841Z,12.45
2023-05-25T23:55:01.605Z,12.28
2023-05-25T23:57:28.322Z,12.29
2023-05-25T23:59:55.280Z,12.35
